»·PEaware :: NWA1649 KLAX-KSFO

NWA1649 :: KLAX-KSFO

FLIGHT INFORMATION

Flight Status: Arrived
Operator:
Northwest Airlines
More flights by this operator :: More flights under this callsign
Pilot: Walter P. (10403)
Aircraft: Unknown
(B727)
More flights by this aircraft type
Origin: KLAX Los Angeles Intl
United States
Destination: KSFO San Francisco Intl
United States
More flights between these airports :: More routes between these airports
Route: +VTU8 RZS J501 BSR BSR3
File this flight plan on PilotEdge
Remarks:
Altitude:
(Current/Filed)
32,000ft
Speed:
(Current/Filed)
460kts
Departed: 30-Apr-18 02:12 PM
Arrived: 30-Apr-18 03:15 PM
Distance/Time
Traveled:
293nm/1:03
Distance/Time
To Go:
Arrived

Flight Plot

Page will automatically refresh every two minutes.

Flight plan parsing failed; only flown route is shown


Map Options




Map Legend


Flown Route
Filed Route
Departure Airport
Arrival Airport
Navaid (VOR, NDB)
Fix

Horizontal Profiles

Position Reports

Time Latitude Longitude Heading Altitude Ground
Speed
30-Apr-18 13:34 33.942006 -118.400316 84 117ft 0kts
30-Apr-18 13:35 33.942006 -118.400316 84 117ft 0kts
30-Apr-18 13:36 33.942006 -118.400316 84 117ft 0kts
30-Apr-18 13:37 33.942006 -118.400316 84 117ft 0kts
30-Apr-18 13:38 33.942006 -118.400316 84 117ft 0kts
30-Apr-18 13:39 33.942006 -118.400316 84 117ft 0kts
30-Apr-18 13:40 33.942006 -118.400316 84 117ft 0kts
30-Apr-18 13:41 33.942006 -118.400316 84 117ft 0kts
30-Apr-18 13:42 33.942006 -118.400316 84 117ft 0kts
30-Apr-18 13:43 33.942006 -118.400316 84 117ft 0kts
30-Apr-18 13:44 33.942006 -118.400316 84 117ft 0kts
30-Apr-18 13:45 33.942006 -118.400316 84 117ft 0kts
30-Apr-18 13:46 33.942006 -118.400316 84 117ft 0kts
30-Apr-18 13:47 33.942006 -118.400316 84 117ft 0kts
30-Apr-18 13:48 33.942006 -118.400316 84 117ft 0kts
30-Apr-18 13:49 33.942006 -118.400316 84 117ft 0kts
30-Apr-18 13:50 33.942006 -118.400316 84 117ft 0kts
30-Apr-18 13:51 33.942006 -118.400316 84 117ft 0kts
30-Apr-18 13:52 33.942006 -118.400316 84 117ft 0kts
30-Apr-18 13:53 33.942006 -118.400317 84 117ft 0kts
30-Apr-18 13:54 33.941964 -118.400804 84 117ft 2kts
30-Apr-18 13:55 33.942178 -118.401088 171 117ft 0kts
30-Apr-18 13:56 33.942177 -118.401088 171 117ft 0kts
30-Apr-18 13:57 33.942177 -118.401088 171 117ft 0kts
30-Apr-18 13:58 33.942177 -118.401088 171 117ft 0kts
30-Apr-18 13:59 33.942177 -118.401088 171 117ft 0kts
30-Apr-18 14:00 33.942177 -118.401088 171 117ft 0kts
30-Apr-18 14:01 33.942177 -118.401088 171 117ft 0kts
30-Apr-18 14:02 33.940561 -118.400692 173 117ft 16kts
30-Apr-18 14:03 33.939087 -118.397061 82 117ft 22kts
30-Apr-18 14:04 33.939847 -118.389610 83 117ft 25kts
30-Apr-18 14:05 33.939962 -118.383284 170 117ft 10kts
30-Apr-18 14:06 33.938460 -118.383028 173 117ft 0kts
30-Apr-18 14:07 33.938460 -118.383028 173 117ft 0kts
30-Apr-18 14:08 33.938460 -118.383028 173 117ft 0kts
30-Apr-18 14:09 33.938460 -118.383028 173 117ft 0kts
30-Apr-18 14:10 33.937255 -118.383831 259 117ft 21kts
30-Apr-18 14:11 33.933916 -118.417239 263 1074ft 164kts
30-Apr-18 14:12 33.925848 -118.476813 261 4577ft 201kts
30-Apr-18 14:13 33.917218 -118.556735 263 6652ft 247kts
30-Apr-18 14:14 33.907121 -118.639175 263 9350ft 257kts
30-Apr-18 14:15 33.896793 -118.721486 263 11776ft 263kts
30-Apr-18 14:16 33.885544 -118.811969 263 13215ft 302kts
30-Apr-18 14:17 33.915142 -118.893162 322 16525ft 303kts
30-Apr-18 14:18 33.975171 -118.961812 306 19268ft 302kts
30-Apr-18 14:19 34.028574 -119.038912 304 21835ft 304kts
30-Apr-18 14:20 34.081355 -119.118150 303 24003ft 308kts
30-Apr-18 14:21 34.134941 -119.197987 302 25778ft 315kts
30-Apr-18 14:22 34.188840 -119.279251 301 27510ft 320kts
30-Apr-18 14:23 34.242297 -119.360314 300 29155ft 312kts
30-Apr-18 14:24 34.294970 -119.440656 301 30283ft 315kts
30-Apr-18 14:25 34.347677 -119.521158 301 31610ft 309kts
30-Apr-18 14:26 34.401364 -119.603662 301 32036ft 326kts
30-Apr-18 14:27 34.458025 -119.691586 301 32052ft 342kts
30-Apr-18 14:28 34.522689 -119.783587 316 32039ft 390kts
30-Apr-18 14:29 34.607538 -119.867322 312 32055ft 398kts
30-Apr-18 14:30 34.686161 -119.958457 304 32061ft 389kts
30-Apr-18 14:31 34.763616 -120.049819 312 32068ft 394kts
30-Apr-18 14:32 34.844925 -120.137043 311 32057ft 393kts
30-Apr-18 14:33 34.925835 -120.225668 310 32082ft 393kts
30-Apr-18 14:34 35.006378 -120.314516 311 32079ft 393kts
30-Apr-18 14:35 35.087318 -120.403725 311 32077ft 393kts
30-Apr-18 14:36 35.166909 -120.490343 311 32080ft 393kts
30-Apr-18 14:37 35.242672 -120.574148 311 32078ft 393kts
30-Apr-18 14:38 35.313134 -120.662795 305 32088ft 388kts
30-Apr-18 14:39 35.381293 -120.762119 304 32095ft 389kts
30-Apr-18 14:40 35.449278 -120.864881 303 32091ft 390kts
30-Apr-18 14:41 35.518850 -120.966938 313 32006ft 399kts
30-Apr-18 14:42 35.600131 -121.048689 313 32020ft 358kts
30-Apr-18 14:43 35.675281 -121.124752 312 30343ft 347kts
30-Apr-18 14:45 35.748173 -121.198731 312 28166ft 337kts
30-Apr-18 14:46 35.819350 -121.271237 313 26019ft 329kts
30-Apr-18 14:47 35.888991 -121.342116 314 23896ft 323kts
30-Apr-18 14:48 35.957354 -121.411906 315 21861ft 318kts
30-Apr-18 14:49 36.024426 -121.480602 316 20139ft 319kts
30-Apr-18 14:50 36.096831 -121.555073 316 20145ft 358kts
30-Apr-18 14:51 36.176446 -121.632817 322 20140ft 382kts
30-Apr-18 14:52 36.260910 -121.704463 321 20150ft 388kts
30-Apr-18 14:53 36.342868 -121.775157 321 20151ft 395kts
30-Apr-18 14:54 36.425087 -121.846673 321 20147ft 400kts
30-Apr-18 14:55 36.518573 -121.911440 345 20146ft 407kts
30-Apr-18 14:56 36.617268 -121.935879 342 19406ft 352kts
30-Apr-18 14:57 36.711670 -121.960037 343 17225ft 345kts
30-Apr-18 14:58 36.804149 -121.983784 345 15107ft 339kts
30-Apr-18 14:59 36.894229 -122.006943 345 13180ft 331kts
30-Apr-18 15:00 36.982759 -122.029765 346 11478ft 326kts
30-Apr-18 15:01 37.068550 -122.051930 346 10534ft 301kts
30-Apr-18 15:02 37.143703 -122.071283 346 9976ft 272kts
30-Apr-18 15:02 37.203115 -122.086734 346 9001ft 274kts
30-Apr-18 15:04 37.281302 -122.107962 345 7978ft 264kts
30-Apr-18 15:05 37.347825 -122.116574 12 7985ft 231kts
30-Apr-18 15:05 37.394467 -122.100365 12 6835ft 228kts
30-Apr-18 15:06 37.452903 -122.079697 12 5165ft 229kts
30-Apr-18 15:07 37.504997 -122.104639 305 4269ft 215kts
30-Apr-18 15:08 37.530864 -122.166572 297 3430ft 213kts
30-Apr-18 15:09 37.556113 -122.226305 296 2516ft 189kts
30-Apr-18 15:11 37.580768 -122.284801 295 1288ft 133kts
30-Apr-18 15:11 37.594059 -122.316383 295 759ft 118kts
30-Apr-18 15:12 37.609498 -122.353019 294 141ft 119kts
30-Apr-18 15:13 37.621013 -122.380540 296 21ft 45kts
30-Apr-18 15:14 37.620979 -122.383306 195 21ft 2kts
30-Apr-18 15:15 37.618824 -122.380079 134 21ft 13kts
30-Apr-18 15:16 37.615548 -122.381258 292 21ft 11kts
30-Apr-18 15:17 37.615569 -122.382630 229 21ft 0kts
30-Apr-18 15:18 37.615569 -122.382630 229 21ft 0kts
30-Apr-18 15:19 37.615569 -122.382630 229 21ft 0kts
30-Apr-18 15:20 37.615569 -122.382630 229 21ft 0kts

Navigation Log

Ident Type
Flight plan parsing failed, navigation log unavailable